createdAt,value
2022-08-09T00:00:23.226Z,15.60
2022-08-09T00:02:51.915Z,15.60
2022-08-09T00:06:17.390Z,15.60
2022-08-09T00:08:11.397Z,15.60
2022-08-09T00:10:41.216Z,15.60
2022-08-09T00:13:17.290Z,15.60
2022-08-09T00:15:58.630Z,15.60
2022-08-09T00:18:27.545Z,15.60
2022-08-09T00:20:56.863Z,15.60
2022-08-09T00:23:55.324Z,15.60
2022-08-09T00:26:13.744Z,15.60
2022-08-09T00:28:52.538Z,15.60
2022-08-09T00:31:57.019Z,15.60
2022-08-09T00:34:11.017Z,15.60
2022-08-09T00:36:40.139Z,15.50
2022-08-09T00:39:16.986Z,15.60
2022-08-09T00:44:11.596Z,15.50
2022-08-09T00:44:46.811Z,15.50
2022-08-09T00:47:16.676Z,15.40
2022-08-09T00:49:54.568Z,15.30
2022-08-09T00:52:30.450Z,15.30
2022-08-09T00:55:00.282Z,15.20
2022-08-09T00:57:34.300Z,15.10
2022-08-09T01:00:20.512Z,15.00
2022-08-09T01:02:52.232Z,15.00
2022-08-09T01:05:51.526Z,15.00
2022-08-09T01:08:16.617Z,14.90
2022-08-09T01:10:59.075Z,14.90
2022-08-09T01:13:31.180Z,14.90
2022-08-09T01:16:11.483Z,14.90
2022-08-09T01:18:47.386Z,14.90
2022-08-09T01:21:45.068Z,14.90
2022-08-09T01:24:25.547Z,14.80
2022-08-09T01:27:00.080Z,14.90
2022-08-09T01:29:41.159Z,14.90
2022-08-09T01:32:31.113Z,15.00
2022-08-09T01:35:17.877Z,15.00
2022-08-09T01:38:08.174Z,15.10
2022-08-09T01:40:42.191Z,15.10
2022-08-09T01:43:12.072Z,15.10
2022-08-09T01:45:44.795Z,15.10
2022-08-09T01:48:15.761Z,15.10
2022-08-09T01:50:44.125Z,15.10
2022-08-09T01:53:19.371Z,15.10
2022-08-09T01:55:48.703Z,15.10
2022-08-09T01:58:18.480Z,15.20
2022-08-09T02:00:53.033Z,15.20
2022-08-09T02:03:21.498Z,15.20
2022-08-09T02:06:03.899Z,15.10
2022-08-09T02:08:57.451Z,15.10
2022-08-09T02:11:25.629Z,15.00
2022-08-09T02:14:15.759Z,15.00
2022-08-09T02:16:59.697Z,14.90
2022-08-09T02:19:43.359Z,14.80
2022-08-09T02:22:14.896Z,14.80
2022-08-09T02:24:46.346Z,14.70
2022-08-09T02:27:21.161Z,14.70
2022-08-09T02:30:12.100Z,14.70
2022-08-09T02:32:42.397Z,14.80
2022-08-09T02:35:17.648Z,14.80
2022-08-09T02:37:47.804Z,14.90
2022-08-09T02:40:27.053Z,14.80
2022-08-09T02:43:00.098Z,14.90
2022-08-09T02:45:31.156Z,14.80
2022-08-09T02:48:03.314Z,14.80
2022-08-09T02:50:34.392Z,14.80
2022-08-09T02:53:03.736Z,14.70
2022-08-09T02:55:39.467Z,14.70
2022-08-09T02:58:36.330Z,14.60
2022-08-09T03:01:06.106Z,14.60
2022-08-09T03:04:12.242Z,14.60
2022-08-09T03:06:25.147Z,14.60
2022-08-09T03:08:55.814Z,14.60
2022-08-09T03:12:04.280Z,14.60
2022-08-09T03:14:13.093Z,14.70
2022-08-09T03:16:45.259Z,14.70
2022-08-09T03:19:58.371Z,14.80
2022-08-09T03:22:12.253Z,14.80
2022-08-09T03:24:51.811Z,14.80
2022-08-09T03:27:21.503Z,14.80
2022-08-09T03:29:57.323Z,14.70
2022-08-09T03:32:31.121Z,14.70
2022-08-09T03:34:59.621Z,14.70
2022-08-09T03:37:55.941Z,14.70
2022-08-09T03:40:18.039Z,14.70
2022-08-09T03:42:46.580Z,14.70
2022-08-09T03:45:15.609Z,14.70
2022-08-09T03:47:46.703Z,14.60
2022-08-09T03:50:27.734Z,14.60
2022-08-09T03:52:57.607Z,14.50
2022-08-09T03:55:25.723Z,14.50
2022-08-09T03:58:03.488Z,14.40
2022-08-09T04:00:34.550Z,14.40
2022-08-09T04:03:04.594Z,14.30
2022-08-09T04:05:40.414Z,14.20
2022-08-09T04:08:08.494Z,14.10
2022-08-09T04:10:36.706Z,14.00
2022-08-09T04:13:09.552Z,13.90
2022-08-09T04:16:18.235Z,13.90
2022-08-09T04:18:28.893Z,13.90
2022-08-09T04:20:56.752Z,13.80
2022-08-09T04:23:25.641Z,13.80
2022-08-09T04:25:54.199Z,13.80
2022-08-09T04:28:32.913Z,13.80
2022-08-09T04:31:07.864Z,13.90
2022-08-09T04:33:53.176Z,13.90
2022-08-09T04:36:25.831Z,13.90
2022-08-09T04:38:53.865Z,13.90
2022-08-09T04:41:23.750Z,14.00
2022-08-09T04:44:05.767Z,14.00
2022-08-09T04:46:57.544Z,14.00
2022-08-09T04:49:40.499Z,14.10
2022-08-09T04:52:18.226Z,14.20
2022-08-09T04:54:51.766Z,14.30
2022-08-09T04:57:23.843Z,14.40
2022-08-09T04:59:52.348Z,14.50
2022-08-09T05:02:20.324Z,14.60
2022-08-09T05:04:55.633Z,14.70
2022-08-09T05:07:24.299Z,14.80
2022-08-09T05:09:52.203Z,14.90
2022-08-09T05:12:22.546Z,15.00
2022-08-09T05:14:50.527Z,15.20
2022-08-09T05:18:42.604Z,15.30
2022-08-09T05:20:09.555Z,15.40
2022-08-09T05:23:54.625Z,15.50
2022-08-09T05:25:26.459Z,15.70
2022-08-09T05:28:00.397Z,15.80
2022-08-09T05:30:30.044Z,16.00
2022-08-09T05:33:00.707Z,16.10
2022-08-09T05:35:31.960Z,16.30
2022-08-09T05:38:06.955Z,16.50
2022-08-09T05:40:36.023Z,16.60
2022-08-09T05:43:04.569Z,16.80
2022-08-09T05:45:52.720Z,17.00
2022-08-09T05:48:20.384Z,17.20
2022-08-09T05:51:16.762Z,17.50
2022-08-09T05:53:56.856Z,17.70
2022-08-09T05:56:26.074Z,18.00
2022-08-09T05:58:58.375Z,18.40
2022-08-09T06:01:27.087Z,18.80
2022-08-09T06:04:02.516Z,19.10
2022-08-09T06:06:35.546Z,19.50
2022-08-09T06:09:09.986Z,19.80
2022-08-09T06:11:56.825Z,20.20
2022-08-09T06:14:26.100Z,20.50
2022-08-09T06:16:55.295Z,20.70
2022-08-09T06:19:25.306Z,20.80
2022-08-09T06:21:58.525Z,21.00
2022-08-09T06:24:26.824Z,21.00
2022-08-09T06:26:54.696Z,21.10
2022-08-09T06:29:23.407Z,21.20
2022-08-09T06:32:08.990Z,21.30
2022-08-09T06:34:42.815Z,21.50
2022-08-09T06:37:12.078Z,21.70
2022-08-09T06:39:58.364Z,21.90
2022-08-09T06:42:30.892Z,22.10
2022-08-09T06:46:04.238Z,22.30
2022-08-09T06:48:00.574Z,22.40
2022-08-09T06:50:31.088Z,22.70
2022-08-09T06:53:01.886Z,22.80
2022-08-09T06:55:33.019Z,23.20
2022-08-09T06:58:04.160Z,23.30
2022-08-09T07:00:51.495Z,23.40
2022-08-09T07:03:27.629Z,23.50
2022-08-09T07:06:03.610Z,23.70
2022-08-09T07:08:34.557Z,23.80
2022-08-09T07:11:07.022Z,24.00
2022-08-09T07:13:45.493Z,24.10
2022-08-09T07:16:41.951Z,24.20
2022-08-09T07:19:15.846Z,24.30
2022-08-09T07:21:55.716Z,24.50
2022-08-09T07:24:32.503Z,24.70
2022-08-09T07:27:11.172Z,24.80
2022-08-09T07:29:57.252Z,25.00
2022-08-09T07:32:32.240Z,25.20
2022-08-09T07:35:02.854Z,25.30
2022-08-09T07:37:42.848Z,25.40
2022-08-09T07:40:17.509Z,25.60
2022-08-09T07:42:50.421Z,25.70
2022-08-09T07:45:22.833Z,25.90
2022-08-09T07:48:05.533Z,26.10
2022-08-09T07:50:36.385Z,26.20
2022-08-09T07:53:05.428Z,26.20
2022-08-09T07:55:41.669Z,26.40
2022-08-09T07:58:26.332Z,26.60
2022-08-09T08:00:56.101Z,26.80
2022-08-09T08:03:37.031Z,27.00
2022-08-09T08:06:05.067Z,27.10
2022-08-09T08:09:02.146Z,27.30
2022-08-09T08:12:09.419Z,27.40
2022-08-09T08:14:10.421Z,27.50
2022-08-09T08:16:39.581Z,27.60
2022-08-09T08:19:11.373Z,27.80
2022-08-09T08:21:39.684Z,28.00
2022-08-09T08:24:11.930Z,28.20
2022-08-09T08:26:55.684Z,28.30
2022-08-09T08:29:27.816Z,28.50
2022-08-09T08:32:03.248Z,28.50
2022-08-09T08:34:31.987Z,28.60
2022-08-09T08:37:02.494Z,28.80
2022-08-09T08:39:39.268Z,28.80
2022-08-09T08:42:12.978Z,28.80
2022-08-09T08:44:42.087Z,28.90
2022-08-09T08:47:13.037Z,28.90
2022-08-09T08:49:48.038Z,29.00
2022-08-09T08:52:52.968Z,29.10
2022-08-09T08:55:06.319Z,29.30
2022-08-09T08:57:37.569Z,29.50
2022-08-09T09:00:08.223Z,29.50
2022-08-09T09:02:46.916Z,29.30
2022-08-09T09:05:57.818Z,29.20
2022-08-09T09:08:30.963Z,29.00
2022-08-09T09:11:01.840Z,29.00
2022-08-09T09:13:42.207Z,28.80
2022-08-09T09:16:31.259Z,28.90
2022-08-09T09:19:21.569Z,28.80
2022-08-09T09:22:08.021Z,28.80
2022-08-09T09:24:43.299Z,29.00
2022-08-09T09:28:02.998Z,29.10
2022-08-09T09:30:22.712Z,29.10
2022-08-09T09:33:15.757Z,29.10
2022-08-09T09:36:00.598Z,29.10
2022-08-09T09:38:43.839Z,28.90
2022-08-09T09:41:12.368Z,28.80
2022-08-09T09:43:41.512Z,28.90
2022-08-09T09:46:43.016Z,29.10
2022-08-09T09:49:14.220Z,29.10
2022-08-09T09:51:42.519Z,29.20
2022-08-09T09:54:20.504Z,29.30
2022-08-09T09:56:53.257Z,29.40
2022-08-09T09:59:38.443Z,29.40
2022-08-09T10:02:08.298Z,29.60
2022-08-09T10:04:36.176Z,29.70
2022-08-09T10:07:09.929Z,29.90
2022-08-09T10:09:49.007Z,30.00
2022-08-09T10:12:28.008Z,30.10
2022-08-09T10:15:04.548Z,30.00
2022-08-09T10:17:50.182Z,30.00
2022-08-09T10:20:27.483Z,29.90
2022-08-09T10:23:13.926Z,29.80
2022-08-09T10:26:07.795Z,29.80
2022-08-09T10:28:34.690Z,30.00
2022-08-09T10:34:10.545Z,29.90
2022-08-09T10:36:42.212Z,30.00
2022-08-09T10:39:15.825Z,30.00
2022-08-09T10:41:47.832Z,29.90
2022-08-09T10:44:18.238Z,29.90
2022-08-09T10:47:28.157Z,29.90
